Time;durP1;ratioP1;P1;durP2;ratioP2;P2;SDS_P1;SDS_P2;PMS_P1;PMS_P2;Temp;Humidity;BMP_temperature;BMP_pressure;BME280_temperature;BME280_humidity;BME280_pressure;Samples;Min_cycle;Max_cycle;Signal;HPM_P1;HPM_P2
2023/03/01 00:01:52;;;;;;;51.07;28.13;;;;;;;1.81;55.45;101666.69;4893187;28;97049;-82
2023/03/01 00:04:17;;;;;;;53.63;27.60;;;;;;;1.80;55.26;101671.00;4902458;28;101713;-82
2023/03/01 00:06:45;;;;;;;52.13;28.23;;;;;;;1.73;55.55;101663.91;4893792;28;101557;-82
2023/03/01 00:09:12;;;;;;;47.93;26.03;;;;;;;1.61;55.28;101634.28;4892715;28;98116;-82
2023/03/01 00:11:38;;;;;;;48.13;26.20;;;;;;;1.65;55.41;101634.38;4890601;28;97408;-81
2023/03/01 00:14:07;;;;;;;45.10;25.00;;;;;;;1.73;56.03;101671.69;4892505;28;101351;-82
2023/03/01 00:16:35;;;;;;;46.40;26.67;;;;;;;1.87;55.34;101666.81;4882258;28;101913;-82
2023/03/01 00:19:00;;;;;;;50.73;27.43;;;;;;;1.78;55.44;101662.31;4881543;28;97052;-83
2023/03/01 00:21:27;;;;;;;45.83;26.60;;;;;;;1.75;55.37;101657.06;4881797;28;97391;-82
2023/03/01 00:23:53;;;;;;;54.60;26.70;;;;;;;1.58;56.18;101661.84;4895205;28;101168;-82
2023/03/01 00:26:20;;;;;;;44.53;26.20;;;;;;;1.75;55.65;101664.84;4879189;28;101459;-82
2023/03/01 00:28:46;;;;;;;48.53;26.97;;;;;;;1.70;55.40;101640.53;4897697;28;97791;-82
2023/03/01 00:31:23;;;;;;;48.23;26.73;;;;;;;1.66;56.29;101658.53;4896219;28;97115;-82
2023/03/01 00:33:52;;;;;;;46.47;27.83;;;;;;;1.46;56.35;101652.91;4892539;28;98186;-84
2023/03/01 00:36:18;;;;;;;49.90;27.30;;;;;;;1.41;56.76;101639.84;4906784;28;98014;-84
2023/03/01 00:38:45;;;;;;;48.97;28.63;;;;;;;1.52;56.80;101656.50;4881750;28;97246;-82
2023/03/01 00:41:13;;;;;;;58.37;30.23;;;;;;;1.46;56.46;101627.03;4883653;28;98717;-82
2023/03/01 00:43:39;;;;;;;55.53;31.67;;;;;;;1.58;56.45;101646.31;4879928;28;101151;-83
2023/03/01 00:46:16;;;;;;;53.40;31.67;;;;;;;1.50;56.07;101613.31;4889836;28;101281;-85
2023/03/01 00:48:42;;;;;;;50.87;29.87;;;;;;;1.48;56.85;101614.97;4900754;28;96815;-84
2023/03/01 00:51:13;;;;;;;50.80;28.70;;;;;;;1.54;56.76;101625.47;4881094;28;97090;-82
2023/03/01 00:53:39;;;;;;;56.57;29.83;;;;;;;1.55;56.45;101624.66;4882484;28;101320;-82
2023/03/01 00:56:06;;;;;;;54.13;30.77;;;;;;;1.63;56.86;101638.66;4889372;28;98074;-82
2023/03/01 00:58:32;;;;;;;61.20;33.17;;;;;;;1.67;56.10;101634.41;4885509;28;97441;-82
2023/03/01 01:00:58;;;;;;;62.07;33.93;;;;;;;1.64;56.05;101632.63;4880663;28;97124;-81
2023/03/01 01:03:24;;;;;;;60.40;32.93;;;;;;;1.62;55.57;101625.66;4880838;28;101527;-83
2023/03/01 01:05:53;;;;;;;63.43;32.57;;;;;;;1.64;56.15;101629.19;4897546;28;98580;-82
2023/03/01 01:08:20;;;;;;;61.60;32.73;;;;;;;1.56;56.13;101623.81;4895026;28;96780;-82
2023/03/01 01:10:46;;;;;;;65.27;33.70;;;;;;;1.57;56.41;101635.91;4923316;28;97169;-82
2023/03/01 01:13:12;;;;;;;66.97;35.40;;;;;;;1.53;56.10;101634.09;4892383;28;101203;-82
2023/03/01 01:15:38;;;;;;;72.30;36.60;;;;;;;1.43;56.07;101625.25;4891518;28;101249;-82
2023/03/01 01:18:03;;;;;;;73.03;35.67;;;;;;;1.13;56.38;101578.78;4909891;28;96938;-81
2023/03/01 01:20:29;;;;;;;69.73;36.77;;;;;;;1.36;56.71;101610.38;4899483;28;96958;-82
2023/03/01 01:22:55;;;;;;;67.70;34.50;;;;;;;1.43;56.44;101617.47;4893746;28;101701;-81
2023/03/01 01:25:21;;;;;;;66.40;34.70;;;;;;;1.17;56.95;101590.97;4891553;28;101260;-82
2023/03/01 01:27:46;;;;;;;60.30;33.90;;;;;;;1.16;56.78;101604.72;4877732;28;97502;-82
2023/03/01 01:30:12;;;;;;;67.33;34.57;;;;;;;1.14;57.04;101621.94;4880167;28;97006;-82
2023/03/01 01:32:38;;;;;;;59.77;32.53;;;;;;;1.13;56.68;101615.91;4908335;28;98104;-82
2023/03/01 01:35:04;;;;;;;59.30;32.87;;;;;;;1.20;56.84;101613.47;4877294;28;101527;-82
2023/03/01 01:37:30;;;;;;;54.37;31.67;;;;;;;1.14;57.09;101611.59;4880583;28;97138;-82
2023/03/01 01:39:59;;;;;;;63.53;33.37;;;;;;;0.93;57.50;101606.72;4896609;28;96804;-82
2023/03/01 01:42:24;;;;;;;58.27;32.23;;;;;;;0.88;57.75;101582.50;4879646;28;101406;-81
2023/03/01 01:45:30;;;;;;;61.97;33.57;;;;;;;0.98;57.24;101596.50;4889408;28;101432;-82
2023/03/01 01:48:01;;;;;;;58.73;32.53;;;;;;;1.01;57.47;101594.88;4877878;28;97189;-83
2023/03/01 01:50:26;;;;;;;62.20;33.10;;;;;;;1.02;57.34;101587.97;4876478;28;97300;-83
2023/03/01 01:52:53;;;;;;;62.37;34.63;;;;;;;1.07;57.19;101591.56;4880770;28;101565;-82
2023/03/01 01:55:24;;;;;;;58.90;32.47;;;;;;;1.01;57.44;101588.84;4891186;28;99916;-81
2023/03/01 01:57:55;;;;;;;64.07;32.03;;;;;;;0.81;58.48;101572.81;4876377;28;97881;-82
2023/03/01 02:00:24;;;;;;;63.20;34.08;;;;;;;0.82;58.52;101587.50;4885178;28;97568;-81
2023/03/01 02:02:55;;;;;;;58.30;32.77;;;;;;;0.78;58.06;101572.72;4879798;28;101762;-82
2023/03/01 02:05:43;;;;;;;67.97;33.90;;;;;;;0.87;58.11;101586.78;4884909;28;101807;-82
2023/03/01 02:08:11;;;;;;;61.17;32.33;;;;;;;0.76;57.65;101559.78;4897267;28;96805;-82
2023/03/01 02:10:37;;;;;;;67.27;34.57;;;;;;;0.92;58.06;101579.13;4874592;28;97400;-82
2023/03/01 02:13:03;;;;;;;63.23;33.27;;;;;;;0.95;57.53;101568.00;4888902;28;98544;-83
2023/03/01 02:15:33;;;;;;;67.47;33.03;;;;;;;0.79;57.33;101566.75;4870232;28;101460;-82
2023/03/01 02:17:59;;;;;;;55.40;32.67;;;;;;;0.76;57.80;101570.13;4910619;28;97444;-82
2023/03/01 02:20:52;;;;;;;59.47;33.70;;;;;;;0.90;57.51;101575.63;4908450;28;97266;-81
2023/03/01 02:23:17;;;;;;;68.07;32.87;;;;;;;0.92;57.69;101578.25;4907576;28;98297;-82
2023/03/01 02:25:52;;;;;;;66.87;35.27;;;;;;;0.68;58.14;101551.81;4897190;28;101445;-81
2023/03/01 02:28:21;;;;;;;56.67;32.47;;;;;;;0.91;57.71;101579.97;4879516;28;97834;-82
2023/03/01 02:33:35;;;;;;;59.67;33.00;;;;;;;0.77;57.92;101581.31;4907966;28;98056;-82
2023/03/01 02:36:14;;;;;;;62.07;31.30;;;;;;;0.70;58.06;101575.13;4876105;28;100576;-81
2023/03/01 02:38:43;;;;;;;56.87;31.73;;;;;;;0.70;58.16;101569.97;4893149;28;97911;-82
2023/03/01 02:41:09;;;;;;;64.90;32.40;;;;;;;0.78;57.63;101583.06;4898782;28;96869;-82
2023/03/01 02:43:34;;;;;;;61.70;33.93;;;;;;;0.77;57.32;101571.00;4889965;28;101427;-82
2023/03/01 02:46:13;;;;;;;64.77;35.90;;;;;;;0.79;57.80;101584.84;4894828;28;99602;-82
2023/03/01 02:48:47;;;;;;;65.33;32.07;;;;;;;0.59;57.84;101571.38;4884721;28;96776;-82
2023/03/01 02:51:22;;;;;;;65.90;35.13;;;;;;;0.52;58.27;101582.38;4901606;28;97391;-82
2023/03/01 02:54:19;;;;;;;66.00;35.30;;;;;;;0.67;58.15;101600.91;4885720;28;101492;-82
2023/03/01 02:56:48;;;;;;;71.90;36.73;;;;;;;0.53;58.37;101597.06;4910856;28;100037;-82
2023/03/01 02:59:21;;;;;;;64.17;36.00;;;;;;;0.51;58.49;101603.91;4887898;28;97425;-82
2023/03/01 03:01:47;;;;;;;68.93;37.28;;;;;;;0.46;58.75;101598.59;4877997;28;97189;-82
2023/03/01 03:04:17;;;;;;;64.97;36.27;;;;;;;0.55;58.20;101590.22;4892836;28;97864;-82
2023/03/01 03:06:45;;;;;;;71.07;36.80;;;;;;;0.44;58.46;101566.69;4891852;28;101806;-82
2023/03/01 03:09:12;;;;;;;66.03;36.13;;;;;;;0.64;58.35;101591.34;4892834;28;97394;-81
2023/03/01 03:11:39;;;;;;;72.43;36.60;;;;;;;0.63;58.13;101593.88;4878379;28;97603;-81
2023/03/01 03:14:05;;;;;;;82.17;40.27;;;;;;;0.44;58.92;101602.84;4879892;28;101734;-82
2023/03/01 03:16:31;;;;;;;76.67;42.17;;;;;;;0.44;58.44;101589.94;4889950;28;101876;-82
2023/03/01 03:19:04;;;;;;;69.63;39.10;;;;;;;0.42;58.64;101592.47;4892081;28;97147;-82
2023/03/01 03:21:33;;;;;;;72.80;38.17;;;;;;;0.48;58.73;101586.59;4872581;28;96948;-82
2023/03/01 03:23:59;;;;;;;75.13;38.53;;;;;;;0.37;59.16;101588.88;4907049;28;98283;-82
2023/03/01 03:26:25;;;;;;;66.73;37.33;;;;;;;0.23;59.05;101561.78;4885005;28;97628;-82
2023/03/01 03:28:51;;;;;;;65.00;37.10;;;;;;;0.31;58.87;101574.91;4870363;28;97899;-82
2023/03/01 03:31:16;;;;;;;70.37;36.73;;;;;;;0.14;59.40;101558.94;4885400;28;97722;-82
2023/03/01 03:33:42;;;;;;;67.03;35.63;;;;;;;0.40;58.75;101576.03;4878383;28;101206;-82
2023/03/01 03:36:12;;;;;;;70.57;38.40;;;;;;;0.26;58.88;101551.53;4891503;28;100925;-82
2023/03/01 03:38:39;;;;;;;76.00;40.03;;;;;;;0.29;58.14;101533.56;4893821;28;97903;-83
2023/03/01 03:41:07;;;;;;;76.60;41.73;;;;;;;0.20;58.40;101547.09;4886008;28;97950;-81
2023/03/01 03:43:35;;;;;;;83.93;43.17;;;;;;;0.37;58.43;101570.78;4865780;28;101059;-82
2023/03/01 03:46:05;;;;;;;76.13;40.77;;;;;;;0.24;58.27;101544.59;4898340;28;101980;-82
2023/03/01 03:48:33;;;;;;;71.73;38.77;;;;;;;0.25;58.58;101538.59;4874011;28;97065;-82
2023/03/01 03:50:59;;;;;;;72.77;37.73;;;;;;;0.31;58.70;101547.38;4883071;28;97022;-82
2023/03/01 03:53:27;;;;;;;74.80;39.17;;;;;;;0.32;58.23;101540.50;4869386;28;101047;-81
2023/03/01 03:55:53;;;;;;;62.67;36.43;;;;;;;0.38;58.62;101563.94;4868511;28;100179;-82
2023/03/01 03:58:21;;;;;;;78.97;39.73;;;;;;;0.35;58.77;101551.81;4902500;28;96998;-81
2023/03/01 04:00:49;;;;;;;74.73;39.67;;;;;;;0.24;58.31;101537.72;4881207;28;96803;-82
2023/03/01 04:03:16;;;;;;;78.13;41.80;;;;;;;0.27;58.60;101555.03;4891404;28;100351;-81
2023/03/01 04:05:42;;;;;;;75.73;39.90;;;;;;;0.22;58.74;101535.09;4894156;28;97896;-81
2023/03/01 04:08:08;;;;;;;77.27;40.80;;;;;;;0.13;58.46;101518.47;4910299;28;96835;-82
2023/03/01 04:10:37;;;;;;;80.60;41.10;;;;;;;0.26;58.50;101535.16;4910313;28;96813;-82
2023/03/01 04:13:03;;;;;;;76.43;39.90;;;;;;;0.27;58.95;101542.97;4880380;28;101227;-82
2023/03/01 04:15:30;;;;;;;66.70;37.80;;;;;;;0.09;58.68;101511.47;4892165;28;98107;-81
2023/03/01 04:17:56;;;;;;;68.70;37.63;;;;;;;0.14;58.87;101543.44;4894490;28;98294;-82
2023/03/01 04:20:24;;;;;;;70.77;38.10;;;;;;;0.01;58.74;101537.09;4880044;28;96973;-81
2023/03/01 04:23:13;;;;;;;68.93;37.87;;;;;;;-0.01;58.72;101533.56;4907761;28;101652;-82
2023/03/01 04:25:58;;;;;;;71.73;36.93;;;;;;;-0.02;58.82;101517.22;4903975;28;98511;-82
2023/03/01 04:28:34;;;;;;;72.17;38.93;;;;;;;0.17;58.89;101556.44;4894508;28;96971;-81
2023/03/01 04:31:12;;;;;;;69.53;37.63;;;;;;;0.01;58.76;101528.47;4882385;28;97209;-82
2023/03/01 04:33:51;;;;;;;75.33;39.63;;;;;;;0.11;58.72;101545.94;4879177;28;101399;-82
2023/03/01 04:36:17;;;;;;;70.37;39.37;;;;;;;-0.03;58.92;101524.91;4897694;28;101439;-81
2023/03/01 04:38:47;;;;;;;75.50;38.93;;;;;;;0.12;59.02;101553.75;4891603;28;97155;-81
2023/03/01 04:41:14;;;;;;;77.83;40.70;;;;;;;0.03;58.90;101548.34;4908955;28;96909;-81
2023/03/01 04:43:40;;;;;;;73.30;39.63;;;;;;;-0.02;59.00;101547.31;4895439;28;101388;-81
2023/03/01 04:46:11;;;;;;;72.13;37.37;;;;;;;-0.16;58.98;101521.09;4893370;28;101660;-81
2023/03/01 04:48:38;;;;;;;74.43;39.05;;;;;;;-0.10;58.93;101523.84;4875233;28;98242;-81
2023/03/01 04:51:05;;;;;;;72.70;40.33;;;;;;;-0.07;58.97;101542.00;4877637;28;97476;-82
2023/03/01 04:53:32;;;;;;;79.50;42.10;;;;;;;-0.13;59.59;101554.75;4875919;28;101504;-81
2023/03/01 04:55:58;;;;;;;83.20;42.63;;;;;;;-0.35;60.27;101547.19;4884202;28;101093;-81
2023/03/01 04:58:24;;;;;;;80.40;41.90;;;;;;;-0.25;59.81;101546.66;4894991;28;97072;-81
2023/03/01 05:00:50;;;;;;;77.90;39.43;;;;;;;-0.30;59.40;101517.25;4894262;28;96903;-82
2023/03/01 05:03:17;;;;;;;72.00;38.87;;;;;;;-0.11;59.15;101560.84;4875384;28;101177;-82
2023/03/01 05:05:45;;;;;;;74.80;39.13;;;;;;;-0.17;59.34;101560.66;4868665;28;101248;-82
2023/03/01 05:08:17;;;;;;;74.43;40.17;;;;;;;-0.10;59.48;101548.81;4873414;28;97710;-81
2023/03/01 05:10:48;;;;;;;75.43;40.67;;;;;;;-0.18;59.73;101553.72;4902867;28;97185;-82
2023/03/01 05:13:20;;;;;;;76.20;41.10;;;;;;;-0.20;59.60;101554.50;4873871;28;101297;-82
2023/03/01 05:15:59;;;;;;;78.97;40.57;;;;;;;-0.24;59.28;101553.56;4872489;28;101370;-82
2023/03/01 05:18:25;;;;;;;71.40;37.80;;;;;;;-0.18;59.32;101547.69;4873000;28;97276;-82
2023/03/01 05:20:56;;;;;;;72.17;39.57;;;;;;;-0.14;59.04;101554.72;4900049;28;97364;-82
2023/03/01 05:23:22;;;;;;;77.17;41.20;;;;;;;-0.15;59.39;101550.38;4877892;28;101350;-82
2023/03/01 05:25:49;;;;;;;78.47;42.20;;;;;;;-0.16;58.99;101554.66;4878843;28;97027;-82
2023/03/01 05:28:15;;;;;;;79.17;43.03;;;;;;;-0.42;59.17;101510.03;4860145;28;97392;-82
2023/03/01 05:30:42;;;;;;;81.13;40.60;;;;;;;-0.17;59.19;101560.66;4861695;28;96869;-82
2023/03/01 05:33:14;;;;;;;82.37;42.60;;;;;;;-0.30;59.71;101561.13;4893415;28;101223;-82
2023/03/01 05:35:44;;;;;;;80.00;41.57;;;;;;;-0.18;59.19;101560.59;4892402;28;97128;-85
2023/03/01 05:38:13;;;;;;;83.57;42.30;;;;;;;-0.32;59.18;101537.88;4875153;28;98436;-84
2023/03/01 05:40:39;;;;;;;77.33;41.33;;;;;;;-0.33;59.50;101536.09;4893722;28;97148;-83
2023/03/01 05:43:05;;;;;;;78.73;42.10;;;;;;;-0.37;59.91;101538.56;4890332;28;101567;-82
2023/03/01 05:45:32;;;;;;;81.03;41.07;;;;;;;-0.27;59.76;101558.63;4891596;28;101109;-82
2023/03/01 05:47:58;;;;;;;74.23;40.90;;;;;;;-0.20;59.68;101558.00;4875400;28;96885;-82
2023/03/01 05:50:32;;;;;;;75.87;40.27;;;;;;;-0.30;59.62;101533.59;4893255;28;97080;-81
2023/03/01 05:53:24;;;;;;;72.50;38.03;;;;;;;-0.18;59.88;101566.63;4880817;28;101621;-85
2023/03/01 05:55:52;;;;;;;75.77;39.27;;;;;;;-0.20;59.11;101564.84;4921753;28;97247;-89
2023/03/01 05:58:19;;;;;;;71.13;37.43;;;;;;;-0.15;59.64;101573.59;4906762;28;97143;-88
2023/03/01 06:00:46;;;;;;;75.20;39.20;;;;;;;-0.21;59.79;101563.09;4873046;28;97398;-88
2023/03/01 06:03:14;;;;;;;69.60;37.13;;;;;;;-0.25;59.47;101555.25;4893285;28;97419;-88
2023/03/01 06:05:40;;;;;;;68.40;37.40;;;;;;;-0.29;59.59;101549.94;4896096;28;101486;-87
2023/03/01 06:08:06;;;;;;;76.00;38.93;;;;;;;-0.21;59.74;101568.25;4880489;28;97372;-87
2023/03/01 06:10:31;;;;;;;73.27;38.17;;;;;;;-0.17;59.86;101564.97;4898763;28;97247;-82
2023/03/01 06:12:57;;;;;;;72.00;38.57;;;;;;;-0.07;59.53;101565.25;4895904;28;97625;-82
2023/03/01 06:15:23;;;;;;;74.50;38.57;;;;;;;-0.06;59.54;101546.38;4890838;28;97259;-81
2023/03/01 06:17:50;;;;;;;73.50;40.43;;;;;;;0.16;59.08;101578.81;4908880;28;97295;-82
2023/03/01 06:20:21;;;;;;;76.33;39.33;;;;;;;0.20;59.06;101560.03;4895353;28;97270;-82
2023/03/01 06:22:47;;;;;;;68.27;37.20;;;;;;;0.27;59.33;101549.84;4896984;28;99844;-82
2023/03/01 06:25:14;;;;;;;69.67;38.43;;;;;;;0.39;59.17;101560.50;4891893;28;100775;-81
2023/03/01 06:27:41;;;;;;;72.77;38.40;;;;;;;0.41;59.30;101554.56;4906754;28;96892;-82
2023/03/01 06:30:10;;;;;;;67.77;39.27;;;;;;;0.51;58.91;101540.16;4904943;28;97094;-83
2023/03/01 06:32:36;;;;;;;69.97;37.67;;;;;;;0.67;59.09;101560.41;4888074;28;101676;-81
2023/03/01 06:35:03;;;;;;;70.90;38.13;;;;;;;0.71;59.35;101556.19;4894986;28;101105;-82
2023/03/01 06:37:29;;;;;;;78.23;38.63;;;;;;;0.86;59.10;101560.88;4887853;28;97304;-81
2023/03/01 06:39:54;;;;;;;73.67;38.80;;;;;;;0.88;59.45;101541.13;4879247;28;97229;-82
2023/03/01 06:42:20;;;;;;;72.07;40.03;;;;;;;1.11;58.89;101542.56;4878420;28;101289;-81
2023/03/01 06:44:46;;;;;;;72.57;39.13;;;;;;;1.34;58.35;101553.44;4901358;28;98261;-81
2023/03/01 06:47:11;;;;;;;68.43;38.60;;;;;;;1.57;58.06;101553.97;4891673;28;97298;-81
2023/03/01 06:49:37;;;;;;;73.13;39.40;;;;;;;1.69;57.71;101555.09;4881948;28;97673;-81
2023/03/01 06:52:03;;;;;;;69.30;37.47;;;;;;;1.74;56.84;101527.56;4890602;28;97565;-80
2023/03/01 06:54:28;;;;;;;64.30;35.07;;;;;;;2.01;56.18;101537.63;4890933;28;101858;-81
2023/03/01 06:56:54;;;;;;;69.27;37.03;;;;;;;2.12;55.69;101519.69;4907739;28;96832;-82
2023/03/01 06:59:20;;;;;;;63.90;35.87;;;;;;;2.12;55.54;101543.88;4890528;28;97186;-81
2023/03/01 07:01:45;;;;;;;66.73;36.10;;;;;;;2.20;54.93;101515.53;4871510;28;101304;-81
2023/03/01 07:04:11;;;;;;;64.07;37.23;;;;;;;2.41;54.82;101541.84;4888746;28;101602;-81
2023/03/01 07:06:37;;;;;;;69.93;38.33;;;;;;;2.34;54.77;101515.81;4887304;28;97272;-82
2023/03/01 07:09:02;;;;;;;68.33;38.67;;;;;;;2.58;54.78;101531.81;4889977;28;97702;-82
2023/03/01 07:11:28;;;;;;;77.60;40.83;;;;;;;2.66;53.83;101512.06;4871668;28;100735;-81
2023/03/01 07:13:55;;;;;;;77.17;42.23;;;;;;;3.05;53.20;101539.50;4889432;28;101238;-85
2023/03/01 07:16:20;;;;;;;68.93;39.50;;;;;;;3.10;52.96;101534.41;4888677;28;96815;-82
2023/03/01 07:18:46;;;;;;;76.60;41.70;;;;;;;3.26;52.85;101549.38;4889792;28;96968;-82
2023/03/01 07:21:13;;;;;;;73.17;40.17;;;;;;;3.35;52.66;101531.34;4889575;28;97898;-84
2023/03/01 07:23:38;;;;;;;76.70;40.70;;;;;;;3.58;52.59;101559.38;4885410;28;101541;-82
2023/03/01 07:26:04;;;;;;;75.17;40.37;;;;;;;3.76;52.32;101557.03;4899606;28;96871;-82
2023/03/01 07:28:30;;;;;;;72.90;41.30;;;;;;;3.86;52.25;101551.06;4888887;28;97123;-83
2023/03/01 07:31:01;;;;;;;65.23;37.37;;;;;;;4.00;51.38;101559.06;4882650;28;98581;-82
2023/03/01 07:33:27;;;;;;;72.05;40.55;;;;;;;4.17;52.07;101559.28;4892542;28;101454;-83
2023/03/01 07:35:57;;;;;;;66.87;39.40;;;;;;;4.43;51.32;101553.50;4891038;28;98369;-81
2023/03/01 07:38:23;;;;;;;68.73;37.23;;;;;;;4.53;50.64;101531.91;4891697;28;98578;-82
2023/03/01 07:40:49;;;;;;;63.87;38.17;;;;;;;4.79;50.43;101537.38;4890595;28;97624;-85
2023/03/01 07:43:14;;;;;;;67.57;40.30;;;;;;;5.07;49.65;101514.19;4909204;28;97846;-82
2023/03/01 07:45:40;;;;;;;69.70;40.93;;;;;;;5.35;49.28;101505.72;4893573;28;97527;-85
2023/03/01 07:48:05;;;;;;;68.60;41.20;;;;;;;5.73;49.09;101530.22;4898076;28;97242;-81
2023/03/01 07:50:31;;;;;;;77.20;40.27;;;;;;;5.88;48.44;101507.72;4890169;28;101790;-83
2023/03/01 07:52:56;;;;;;;70.17;38.90;;;;;;;6.19;47.70;101515.66;4904489;28;98138;-82
2023/03/01 07:55:22;;;;;;;64.27;36.07;;;;;;;6.42;47.51;101499.22;4874472;28;96901;-81
2023/03/01 07:57:47;;;;;;;57.97;36.17;;;;;;;6.74;46.91;101512.28;4896750;28;97184;-82
2023/03/01 08:00:13;;;;;;;62.30;34.80;;;;;;;6.93;46.53;101518.41;4892548;28;101222;-81
2023/03/01 08:02:41;;;;;;;60.13;33.70;;;;;;;7.22;45.78;101513.16;4880197;28;100812;-81
2023/03/01 08:05:07;;;;;;;60.70;34.60;;;;;;;7.20;44.92;101504.47;4897085;28;98162;-83
2023/03/01 08:07:33;;;;;;;55.77;32.33;;;;;;;7.44;45.26;101495.69;4902424;28;97823;-82
2023/03/01 08:09:58;;;;;;;49.03;29.35;;;;;;;7.78;44.88;101506.06;4887203;28;101378;-81
2023/03/01 08:12:24;;;;;;;49.03;29.95;;;;;;;7.99;44.12;101492.88;4908961;28;101753;-83
2023/03/01 08:14:49;;;;;;;48.15;30.23;;;;;;;8.34;43.69;101487.47;4911321;28;98448;-84
2023/03/01 08:17:15;;;;;;;52.25;28.95;;;;;;;8.56;43.04;101474.28;4892808;28;97528;-82
2023/03/01 08:19:42;;;;;;;49.25;27.63;;;;;;;8.81;41.58;101485.41;4911660;28;98237;-81
2023/03/01 08:22:07;;;;;;;38.20;24.30;;;;;;;8.83;40.62;101466.19;4896333;28;101387;-82
2023/03/01 08:24:33;;;;;;;41.42;25.25;;;;;;;9.25;41.10;101476.28;4888526;28;97595;-82
2023/03/01 08:26:58;;;;;;;46.17;28.60;;;;;;;9.31;40.68;101468.38;4898129;28;96909;-82
2023/03/01 08:29:24;;;;;;;50.92;27.80;;;;;;;9.60;40.34;101486.41;4879188;28;101665;-82
2023/03/01 08:31:50;;;;;;;45.95;27.30;;;;;;;9.79;39.31;101484.41;4892845;28;98006;-82
2023/03/01 08:34:17;;;;;;;42.83;26.60;;;;;;;9.70;39.61;101458.31;4890247;28;96916;-82
2023/03/01 08:36:45;;;;;;;56.35;26.77;;;;;;;10.29;40.48;101476.78;4895426;28;97792;-85
2023/03/01 08:39:13;;;;;;;50.38;25.15;;;;;;;10.21;39.00;101484.75;4906703;28;101485;-80
2023/03/01 08:41:39;;;;;;;42.63;24.10;;;;;;;10.57;38.44;101464.13;4917602;28;98206;-78
2023/03/01 08:44:05;;;;;;;39.90;25.83;;;;;;;10.72;36.17;101477.00;4903602;28;97164;-82
2023/03/01 08:46:36;;;;;;;44.05;23.90;;;;;;;10.86;37.35;101490.75;4891880;28;98030;-81
2023/03/01 08:49:11;;;;;;;37.55;24.55;;;;;;;11.38;36.43;101486.34;4908193;28;98452;-84
2023/03/01 08:51:36;;;;;;;44.63;23.05;;;;;;;11.95;36.05;101480.84;4883622;28;101911;-82
2023/03/01 08:54:04;;;;;;;39.55;23.48;;;;;;;12.21;34.49;101487.31;4894958;28;96879;-82
2023/03/01 08:56:29;;;;;;;30.10;18.02;;;;;;;12.10;33.37;101484.03;4893549;28;97360;-84
2023/03/01 08:58:55;;;;;;;32.17;17.35;;;;;;;12.99;32.56;101484.56;4906451;28;97585;-83
2023/03/01 09:01:20;;;;;;;30.63;17.90;;;;;;;13.26;31.85;101475.09;4892621;28;102155;-82
2023/03/01 09:03:46;;;;;;;49.78;20.27;;;;;;;14.11;31.67;101473.53;4872624;28;97249;-81
2023/03/01 09:06:13;;;;;;;24.75;16.75;;;;;;;14.88;29.75;101472.84;4897924;28;96916;-80
2023/03/01 09:08:46;;;;;;;27.88;16.08;;;;;;;14.54;28.91;101470.47;4895337;28;101536;-80
2023/03/01 09:11:15;;;;;;;26.08;16.92;;;;;;;14.75;29.51;101474.19;4893143;28;101350;-81
2023/03/01 09:13:41;;;;;;;22.38;15.75;;;;;;;15.34;28.80;101457.19;4895496;28;97983;-81
2023/03/01 09:16:07;;;;;;;28.63;16.98;;;;;;;16.65;27.56;101467.16;4891352;28;97234;-81
2023/03/01 09:18:34;;;;;;;22.63;17.80;;;;;;;16.59;26.94;101450.66;4887985;28;97625;-82
2023/03/01 09:21:06;;;;;;;25.95;17.67;;;;;;;17.15;26.27;101452.72;4895353;28;101243;-81
2023/03/01 09:23:38;;;;;;;24.02;18.20;;;;;;;17.54;25.32;101460.72;4885813;28;97226;-81
2023/03/01 09:26:08;;;;;;;28.13;17.55;;;;;;;18.44;25.29;101460.94;4894593;28;96875;-81
2023/03/01 09:28:33;;;;;;;31.92;19.08;;;;;;;18.62;24.45;101442.38;4878080;28;98011;-81
2023/03/01 09:31:00;;;;;;;25.83;17.67;;;;;;;19.00;24.17;101429.81;4890614;28;101113;-82
2023/03/01 09:33:27;;;;;;;23.63;16.95;;;;;;;18.67;24.49;101449.16;4879323;28;97231;-83
2023/03/01 09:35:57;;;;;;;21.50;16.48;;;;;;;18.71;24.31;101444.56;4908364;28;96855;-82
2023/03/01 09:38:22;;;;;;;30.47;18.07;;;;;;;18.45;24.94;101444.06;4877863;28;102374;-83
2023/03/01 09:40:49;;;;;;;23.63;15.27;;;;;;;18.50;24.01;101427.84;4876742;28;101274;-82
2023/03/01 09:43:40;;;;;;;26.25;16.38;;;;;;;18.19;25.36;101444.47;4911169;28;98503;-83
2023/03/01 09:46:08;;;;;;;24.93;16.60;;;;;;;18.89;24.08;101441.00;4910070;28;97471;-82
2023/03/01 09:48:43;;;;;;;22.88;17.08;;;;;;;18.65;24.20;101444.88;4893644;28;101335;-81
2023/03/01 09:51:14;;;;;;;27.70;16.33;;;;;;;18.33;24.07;101442.84;4889046;28;101856;-80
2023/03/01 09:53:39;;;;;;;31.50;16.63;;;;;;;17.67;24.43;101437.09;4894627;28;97266;-81
2023/03/01 09:56:27;;;;;;;18.08;15.25;;;;;;;18.28;22.94;101449.34;4879732;28;97203;-82
2023/03/01 09:59:13;;;;;;;22.10;15.27;;;;;;;18.11;23.73;101444.81;4909850;28;98236;-83
2023/03/01 10:01:57;;;;;;;23.52;14.68;;;;;;;18.33;23.33;101439.34;4906452;28;98212;-82
2023/03/01 10:04:54;;;;;;;22.50;15.32;;;;;;;18.06;23.49;101430.88;4899652;28;97437;-82
2023/03/01 10:07:41;;;;;;;25.35;15.63;;;;;;;17.78;23.92;101437.50;4879986;28;97790;-82
2023/03/01 10:10:07;;;;;;;19.35;14.43;;;;;;;17.52;24.15;101432.50;4910764;28;101356;-83
2023/03/01 10:12:36;;;;;;;23.73;14.48;;;;;;;17.01;24.56;101424.13;4892641;28;100906;-82
2023/03/01 10:15:14;;;;;;;24.83;16.30;;;;;;;17.07;24.52;101430.94;4896131;28;96791;-84
2023/03/01 10:17:55;;;;;;;25.02;14.60;;;;;;;16.70;24.88;101425.41;4885851;28;97543;-83
2023/03/01 10:20:24;;;;;;;26.45;15.93;;;;;;;15.85;25.49;101416.47;4888822;28;99891;-82
2023/03/01 10:22:52;;;;;;;24.58;17.13;;;;;;;15.88;25.94;101423.44;4879043;28;99542;-81
2023/03/01 10:25:36;;;;;;;24.60;16.40;;;;;;;15.38;26.49;101425.25;4888888;28;96858;-80
2023/03/01 10:28:13;;;;;;;29.75;16.50;;;;;;;14.85;27.25;101419.22;4892481;28;96922;-83
2023/03/01 10:30:41;;;;;;;24.92;15.73;;;;;;;14.57;28.02;101419.28;4912852;28;101865;-83
2023/03/01 10:33:18;;;;;;;25.05;17.27;;;;;;;14.61;27.75;101413.88;4890293;28;101152;-83
2023/03/01 10:35:43;;;;;;;22.60;16.15;;;;;;;14.13;28.02;101405.72;4893839;28;96726;-82
2023/03/01 10:38:11;;;;;;;21.58;16.98;;;;;;;14.25;28.33;101410.59;4879083;28;97011;-83
2023/03/01 10:40:50;;;;;;;23.65;16.55;;;;;;;13.60;29.09;101398.53;4892542;28;97902;-83
2023/03/01 10:43:15;;;;;;;27.38;15.88;;;;;;;13.62;29.58;101406.41;4898850;28;101806;-83
2023/03/01 10:45:42;;;;;;;34.85;17.45;;;;;;;13.42;30.09;101377.97;4886511;28;97749;-83
2023/03/01 10:48:11;;;;;;;22.88;14.30;;;;;;;13.34;28.86;101404.56;4894089;28;97265;-83
2023/03/01 10:50:39;;;;;;;19.52;14.02;;;;;;;12.52;28.95;101349.66;4925194;28;97654;-84
2023/03/01 10:53:04;;;;;;;25.83;15.18;;;;;;;12.56;29.98;101404.84;4895402;28;97665;-83
2023/03/01 10:55:34;;;;;;;23.80;15.27;;;;;;;12.35;29.36;101379.91;4891423;28;97610;-83
2023/03/01 10:58:20;;;;;;;23.00;14.77;;;;;;;12.09;30.17;101398.09;4903501;28;97448;-83
2023/03/01 11:00:52;;;;;;;21.90;14.77;;;;;;;11.63;30.46;101370.16;4892289;28;101899;-82
2023/03/01 11:03:19;;;;;;;;;;;;;;;11.27;30.98;101394.53;4908965;28;101516;-83
2023/03/01 11:05:52;;;;;;;20.10;15.20;;;;;;;10.99;31.41;101381.06;4873055;28;97636;-83
2023/03/01 11:08:39;;;;;;;29.00;15.98;;;;;;;10.71;32.30;101385.97;4922317;28;96896;-82
2023/03/01 11:11:37;;;;;;;24.35;15.98;;;;;;;10.43;33.32;101364.56;4897148;28;101150;-83
2023/03/01 11:14:07;;;;;;;21.60;13.25;;;;;;;10.55;31.98;101387.13;4906316;28;100514;-83
2023/03/01 11:16:38;;;;;;;24.63;15.07;;;;;;;10.28;32.63;101362.22;4892136;28;97302;-82
2023/03/01 11:19:15;;;;;;;22.25;14.63;;;;;;;10.19;33.30;101386.81;4894644;28;96875;-82
2023/03/01 11:21:53;;;;;;;26.05;15.52;;;;;;;9.89;33.11;101380.25;4892295;28;98356;-83
2023/03/01 11:24:19;;;;;;;23.45;14.68;;;;;;;9.67;33.74;101377.06;4876886;28;101302;-83